BAW412 EGLL-LEMG
Flight info
| Callsign | BAW412 |
|---|---|
| Flight time | N/A |
| Altitude | 35000 |
| Route | GASGU N866 SAM M195 MARUK N621 LELNA DCT NOVAN DCT DELOG DCT CRISA DCT VULPE |
| Aircraft | A320/M-SDE3FGHIRWY/LB1 |
Departure
| Time | 2026-05-07 16:04 |
|---|---|
| Airport | London Heathrow Airport (EGLL) |
Arrival
| Time | N/A |
|---|---|
| Airport | Málaga-Costa del Sol Airport (LEMG) |
| Time | Latitude | Longitude | Altitude | Speed | Heading |
|---|---|---|---|---|---|
| 2026-05-07 15:20 | 51.47271 | -0.48585 | 90 ft | 0 kts | 269° |
| 2026-05-07 15:53 | 51.47271 | -0.48584 | 90 ft | 1 kts | 269° |
| 2026-05-07 15:53 | 51.47271 | -0.48544 | 86 ft | 4 kts | 269° |
| 2026-05-07 15:53 | 51.47271 | -0.48510 | 87 ft | 4 kts | 262° |
| 2026-05-07 15:54 | 51.47281 | -0.48478 | 90 ft | 3 kts | 201° |
| 2026-05-07 15:54 | 51.47305 | -0.48473 | 87 ft | 3 kts | 179° |
| 2026-05-07 15:54 | 51.47311 | -0.48473 | 88 ft | 0 kts | 179° |
| 2026-05-07 15:57 | 51.47303 | -0.48473 | 87 ft | 4 kts | 180° |
| 2026-05-07 15:57 | 51.47257 | -0.48473 | 88 ft | 9 kts | 180° |
| 2026-05-07 15:58 | 51.47189 | -0.48473 | 86 ft | 11 kts | 180° |
| 2026-05-07 15:58 | 51.47109 | -0.48472 | 88 ft | 12 kts | 180° |
| 2026-05-07 15:58 | 51.47017 | -0.48472 | 87 ft | 14 kts | 180° |
| 2026-05-07 15:58 | 51.46912 | -0.48470 | 89 ft | 15 kts | 179° |
| 2026-05-07 15:59 | 51.46803 | -0.48469 | 86 ft | 16 kts | 180° |
| 2026-05-07 15:59 | 51.46684 | -0.48467 | 86 ft | 14 kts | 180° |
| 2026-05-07 15:59 | 51.46653 | -0.48467 | 86 ft | 0 kts | 180° |
| 2026-05-07 16:00 | 51.46650 | -0.48467 | 86 ft | 0 kts | 180° |
| 2026-05-07 16:01 | 51.46648 | -0.48467 | 86 ft | 1 kts | 180° |
| 2026-05-07 16:01 | 51.46635 | -0.48467 | 88 ft | 3 kts | 180° |
| 2026-05-07 16:01 | 51.46612 | -0.48467 | 86 ft | 4 kts | 180° |
| 2026-05-07 16:01 | 51.46595 | -0.48467 | 86 ft | 0 kts | 179° |
| 2026-05-07 16:02 | 51.46593 | -0.48467 | 86 ft | 1 kts | 179° |
| 2026-05-07 16:02 | 51.46581 | -0.48467 | 86 ft | 3 kts | 179° |
| 2026-05-07 16:02 | 51.46544 | -0.48466 | 86 ft | 7 kts | 179° |
| 2026-05-07 16:02 | 51.46489 | -0.48462 | 86 ft | 8 kts | 160° |
| 2026-05-07 16:03 | 51.46479 | -0.48387 | 88 ft | 0 kts | 89° |
| 2026-05-07 16:03 | 51.46479 | -0.48363 | 87 ft | 14 kts | 89° |
| 2026-05-07 16:04 | 51.46480 | -0.47822 | 87 ft | 81 kts | 89° |
| 2026-05-07 16:04 | 51.46484 | -0.46636 | 92 ft | 130 kts | 89° |
| 2026-05-07 16:04 | 51.46491 | -0.44973 | 149 ft | 163 kts | 90° |
| 2026-05-07 16:04 | 51.46500 | -0.43142 | 755 ft | 164 kts | 90° |
| 2026-05-07 16:05 | 51.46360 | -0.41313 | 1289 ft | 172 kts | 116° |
| 2026-05-07 16:05 | 51.45689 | -0.39621 | 1675 ft | 187 kts | 126° |
| 2026-05-07 16:05 | 51.44906 | -0.37837 | 2026 ft | 205 kts | 127° |
| 2026-05-07 16:05 | 51.44033 | -0.35889 | 2322 ft | 227 kts | 127° |
| 2026-05-07 16:06 | 51.42886 | -0.34009 | 2730 ft | 247 kts | 146° |
| 2026-05-07 16:06 | 51.41281 | -0.32925 | 3419 ft | 254 kts | 171° |
| 2026-05-07 16:06 | 51.39514 | -0.32930 | 4235 ft | 259 kts | 192° |
| 2026-05-07 16:06 | 51.37861 | -0.34091 | 5015 ft | 264 kts | 216° |
| 2026-05-07 16:07 | 51.36481 | -0.36040 | 5759 ft | 268 kts | 222° |
| 2026-05-07 16:07 | 51.35122 | -0.38038 | 5973 ft | 269 kts | 222° |
| 2026-05-07 16:07 | 51.33743 | -0.40048 | 6008 ft | 268 kts | 222° |
| 2026-05-07 16:07 | 51.32340 | -0.42086 | 6005 ft | 272 kts | 222° |
| 2026-05-07 16:08 | 51.31046 | -0.44242 | 6006 ft | 272 kts | 234° |